INFORMACIÓN METAR y TAF
METAR FOR GMMN
ADDS - METARS form results

(0726 UTC 24 January 2019)
Data provider http://aviationweather.gov/metar/data/
 
METAR text: GMMN 240700Z 26003KT 230V290 9999 BKN020 10/10 Q1018 NOSIG
Conditions at: GMMN (NOUASSEUR/CASABL, MA) observed 0700 UTC 24 January 2019
Temperature: 10.0°C (50°F)
Dewpoint: 10.0°C (50°F) [RH = 100%]
Pressure (altimeter): 30.06 inches Hg (1018.0 mb)
Winds: from the W (260 degrees) at 3 MPH (3 knots; 1.5 m/s)
Visibility: 6 or more miles (10+ km)
Ceiling: 2000 feet AGL
Clouds: broken clouds at 2000 feet AGL
Weather: no significant weather observed at this time

METAR text: GMMN 240630Z 24004KT 8000 BKN020 10/10 Q1018 NOSIG
Conditions at: GMMN (NOUASSEUR/CASABL, MA) observed 0630 UTC 24 January 2019
Temperature: 10.0°C (50°F)
Dewpoint: 10.0°C (50°F) [RH = 100%]
Pressure (altimeter): 30.06 inches Hg (1018.0 mb)
Winds: from the WSW (240 degrees) at 5 MPH (4 knots; 2.1 m/s)
Visibility: 5 miles ( 8 km)
Ceiling: 2000 feet AGL
Clouds: broken clouds at 2000 feet AGL
Weather: no significant weather observed at this time

Forecast for: GMMN (NOUASSEUR/CASABL, MA)
Text: TAF GMMN 240500Z 2406/2512 24004KT 9999 BKN016
Forecast period: 0600 UTC 24 January 2019 to 1200 UTC 25 January 2019
Forecast type: FROM: standard forecast or significant change
Winds: from the WSW (240 degrees) at 5 MPH (4 knots; 2.1 m/s)
Visibility: 6 or more miles 10+ km)
Ceiling: 1600 feet AGL
Clouds: broken clouds at 1600 feet AGL
Weather: no significant weather forecast for this period
Text: TEMPO 2408/2412 5000 RA BKN013
Forecast period: 0800 to 1200 UTC 24 January 2019
Forecast type: TEMPORARY: The following changes expected for less than half the time period
Visibility: 3 miles (5 km)
Ceiling: 1300 feet AGL
Clouds: broken clouds at 1300 feet AGL
Weather: RA  (moderate rain)

 MAPA DE AEROPUERTO

 INFORMACIÓN DE PISTA
Pista 17L Longitud 12205 ft Ancho 148 ft
Elevación 633 ft Umbral desplazado 0 ft Rumbo de pista 164
Pista 35R Longitud 12205 ft Ancho 148 ft
Elevación 656 ft Umbral desplazado 0 ft Rumbo de pista 344
Pista 17R Longitud 12205 ft Ancho 148 ft
Elevación 636 ft Umbral desplazado 0 ft Rumbo de pista 164
Pista 35L Longitud 12205 ft Ancho 148 ft
Elevación 656 ft Umbral desplazado 0 ft Rumbo de pista 344

 FRECUANCIAS DEL AEROPUERTO
Tipo APP Nombre APP Frecuencia 121.3 MHZ
Tipo ATIS Nombre ATIS Frecuencia 126.4 MHZ
Tipo TWR Nombre TWR Frecuencia 118.5 MHZ

 RADIO AYUDAS DEL AEROPUERTO
Tipo VOR-DME Nombre Casablanca Frecuencia 114000 KHZ



Powered by Virtual Airlines Manager [v2.6.2]